Time;durP1;ratioP1;P1;durP2;ratioP2;P2;SDS_P1;SDS_P2;PMS_P1;PMS_P2;Temp;Humidity;BMP_temperature;BMP_pressure;BME280_temperature;BME280_humidity;BME280_pressure;Samples;Min_cycle;Max_cycle;Signal;HPM_P1;HPM_P2
2023/11/11 00:01:15;;;;;;;1.63;1.47;;;8.40;99.90;;;;;;5075378;28;20190;-69
2023/11/11 00:03:41;;;;;;;1.77;1.30;;;8.40;99.90;;;;;;5074518;28;20166;-69
2023/11/11 00:06:07;;;;;;;1.90;1.70;;;8.40;99.90;;;;;;5074522;28;20407;-69
2023/11/11 00:08:34;;;;;;;3.73;1.73;;;8.40;99.90;;;;;;5074468;28;20200;-69
2023/11/11 00:11:00;;;;;;;2.80;1.90;;;8.50;99.90;;;;;;5075339;28;20896;-69
2023/11/11 00:13:25;;;;;;;3.00;2.10;;;8.50;99.90;;;;;;5074914;28;20487;-69
2023/11/11 00:15:51;;;;;;;2.23;1.93;;;8.50;99.90;;;;;;5075313;28;20167;-69
2023/11/11 00:18:18;;;;;;;2.00;1.67;;;8.40;99.90;;;;;;5075053;28;20178;-69
2023/11/11 00:20:43;;;;;;;3.47;2.13;;;8.40;99.90;;;;;;5074867;28;20595;-69
2023/11/11 00:23:09;;;;;;;4.10;3.23;;;8.50;99.90;;;;;;5074581;28;20506;-69
2023/11/11 00:25:34;;;;;;;5.30;3.53;;;8.40;99.90;;;;;;5075072;28;20653;-69
2023/11/11 00:28:00;;;;;;;4.63;3.40;;;8.50;99.90;;;;;;5074905;28;20573;-68
2023/11/11 00:30:25;;;;;;;4.17;3.77;;;8.50;99.90;;;;;;5074869;28;20166;-69
2023/11/11 00:32:54;;;;;;;6.63;4.80;;;8.50;99.90;;;;;;5074703;28;20835;-68
2023/11/11 00:35:19;;;;;;;5.53;4.73;;;8.50;99.90;;;;;;5074658;28;20159;-69
2023/11/11 00:37:45;;;;;;;4.77;4.20;;;8.50;99.90;;;;;;5074705;28;20399;-69
2023/11/11 00:40:11;;;;;;;4.87;4.37;;;8.50;99.90;;;;;;5074729;28;20174;-69
2023/11/11 00:42:37;;;;;;;6.60;4.60;;;8.50;99.90;;;;;;5074585;28;20255;-69
2023/11/11 00:45:02;;;;;;;6.63;5.67;;;8.50;99.90;;;;;;5074440;28;20487;-69
2023/11/11 00:47:29;;;;;;;5.87;4.73;;;8.60;99.90;;;;;;5074524;28;20170;-68
2023/11/11 00:49:56;;;;;;;6.00;5.13;;;8.50;99.90;;;;;;5074447;28;20261;-69
2023/11/11 00:52:22;;;;;;;8.90;6.60;;;8.60;99.90;;;;;;5074297;28;20871;-69
2023/11/11 00:54:48;;;;;;;8.83;6.90;;;8.60;99.90;;;;;;5074382;28;20498;-68
2023/11/11 00:57:14;;;;;;;10.23;6.40;;;8.60;99.90;;;;;;5074454;28;20551;-69
2023/11/11 00:59:40;;;;;;;10.33;7.97;;;8.50;99.90;;;;;;5074282;28;20930;-69
2023/11/11 01:02:05;;;;;;;11.33;8.30;;;8.40;99.90;;;;;;5074071;28;20444;-69
2023/11/11 01:04:31;;;;;;;12.57;8.60;;;8.40;99.90;;;;;;5074156;28;20173;-69
2023/11/11 01:06:56;;;;;;;12.03;9.33;;;8.40;99.90;;;;;;5074096;28;20652;-68
2023/11/11 01:09:22;;;;;;;17.30;11.53;;;8.40;99.90;;;;;;5074443;28;20605;-69
2023/11/11 01:11:48;;;;;;;17.80;11.00;;;8.30;99.90;;;;;;5074184;28;20241;-69
2023/11/11 01:14:14;;;;;;;15.30;10.90;;;8.40;99.90;;;;;;5073941;28;20194;-69
2023/11/11 01:16:39;;;;;;;16.53;11.33;;;8.30;99.90;;;;;;5074178;28;20621;-69
2023/11/11 01:19:05;;;;;;;17.70;12.60;;;8.40;99.90;;;;;;5073963;28;20707;-69
2023/11/11 01:21:31;;;;;;;14.77;10.97;;;8.30;99.90;;;;;;5073920;28;20204;-68
2023/11/11 01:23:56;;;;;;;13.23;10.87;;;8.30;99.90;;;;;;5073795;28;20166;-69
2023/11/11 01:26:25;;;;;;;14.90;10.90;;;8.40;99.90;;;;;;5073889;28;20217;-69
2023/11/11 01:28:51;;;;;;;16.17;11.50;;;8.40;99.90;;;;;;5073668;28;20436;-69
2023/11/11 01:31:17;;;;;;;16.77;11.13;;;8.40;99.90;;;;;;5073713;28;20401;-69
2023/11/11 01:33:43;;;;;;;16.37;11.53;;;8.50;99.90;;;;;;5073554;28;20166;-68
2023/11/11 01:36:08;;;;;;;15.17;11.77;;;8.40;99.90;;;;;;5073554;28;20416;-69
2023/11/11 01:38:34;;;;;;;15.23;11.17;;;8.40;99.90;;;;;;5073606;28;20561;-69
2023/11/11 01:41:03;;;;;;;14.07;10.83;;;8.40;99.90;;;;;;5073646;28;20173;-69
2023/11/11 01:43:29;;;;;;;17.03;11.47;;;8.40;99.90;;;;;;5073382;28;20173;-69
2023/11/11 01:45:56;;;;;;;13.00;9.20;;;8.40;99.90;;;;;;5073545;28;20895;-69
2023/11/11 01:48:22;;;;;;;14.23;10.33;;;8.30;99.90;;;;;;5073428;28;20190;-69
2023/11/11 01:50:48;;;;;;;13.13;9.53;;;8.20;99.90;;;;;;5073360;28;20450;-68
2023/11/11 01:53:16;;;;;;;11.07;7.90;;;8.20;99.90;;;;;;5073111;28;20771;-69
2023/11/11 01:55:42;;;;;;;12.30;9.23;;;8.10;99.90;;;;;;5073401;28;20405;-69
2023/11/11 01:58:09;;;;;;;12.10;9.27;;;8.10;99.90;;;;;;5073302;28;20855;-69
2023/11/11 02:00:36;;;;;;;10.17;7.60;;;8.00;99.90;;;;;;5073142;28;20404;-68
2023/11/11 02:03:02;;;;;;;8.77;7.37;;;8.00;99.90;;;;;;5072620;28;20465;-69
2023/11/11 02:05:28;;;;;;;11.63;8.10;;;8.00;99.90;;;;;;5072959;28;20400;-69
2023/11/11 02:07:58;;;;;;;11.53;8.57;;;7.90;99.90;;;;;;5072928;28;20408;-69
2023/11/11 02:10:24;;;;;;;10.73;7.30;;;7.90;99.90;;;;;;5072352;28;20412;-69
2023/11/11 02:12:50;;;;;;;10.10;7.57;;;7.80;99.90;;;;;;5072741;28;20400;-69
2023/11/11 02:15:17;;;;;;;7.80;6.00;;;7.80;99.90;;;;;;5072770;28;20763;-69
2023/11/11 02:17:43;;;;;;;12.07;8.00;;;7.80;99.90;;;;;;5072632;28;20852;-69
2023/11/11 02:20:11;;;;;;;13.10;8.70;;;7.80;99.90;;;;;;5072744;28;20436;-68
2023/11/11 02:22:40;;;;;;;12.03;7.63;;;7.80;99.90;;;;;;5072710;28;20197;-69
2023/11/11 02:25:08;;;;;;;8.73;7.00;;;7.80;99.90;;;;;;5072588;28;20396;-69
2023/11/11 02:27:34;;;;;;;9.17;6.43;;;7.80;99.90;;;;;;5072675;28;20407;-69
2023/11/11 02:30:02;;;;;;;20.97;6.63;;;7.90;99.90;;;;;;5072457;28;20417;-69
2023/11/11 02:32:27;;;;;;;16.50;7.70;;;7.90;99.90;;;;;;5072413;28;20412;-69
2023/11/11 02:34:53;;;;;;;14.70;8.13;;;8.00;99.90;;;;;;5072293;28;20404;-69
2023/11/11 02:37:18;;;;;;;10.70;6.87;;;8.00;99.90;;;;;;5072520;28;20670;-69
2023/11/11 02:39:44;;;;;;;13.77;8.43;;;8.00;99.90;;;;;;5072307;28;20186;-69
2023/11/11 02:42:10;;;;;;;13.63;8.30;;;8.00;99.90;;;;;;5072292;28;20190;-69
2023/11/11 02:44:36;;;;;;;16.30;9.10;;;8.00;99.90;;;;;;5072170;28;20162;-69
2023/11/11 02:47:01;;;;;;;16.87;9.70;;;8.00;99.90;;;;;;5072341;28;20408;-69
2023/11/11 02:49:27;;;;;;;11.93;8.90;;;8.10;99.90;;;;;;5072112;28;20186;-68
2023/11/11 02:51:52;;;;;;;12.57;8.77;;;8.10;99.90;;;;;;5072239;28;20166;-69
2023/11/11 02:54:18;;;;;;;12.90;8.77;;;8.00;99.90;;;;;;5071845;28;20212;-69
2023/11/11 02:56:43;;;;;;;15.37;10.70;;;8.00;99.90;;;;;;5072152;28;20178;-69
2023/11/11 02:59:09;;;;;;;17.53;9.70;;;7.90;99.90;;;;;;5071811;28;20243;-69
2023/11/11 03:01:35;;;;;;;14.33;8.80;;;7.90;99.90;;;;;;5071964;28;20255;-69
2023/11/11 03:04:01;;;;;;;12.73;9.10;;;7.90;99.90;;;;;;5071836;28;20177;-69
2023/11/11 03:06:27;;;;;;;18.53;12.47;;;7.80;99.90;;;;;;5072108;28;20400;-69
2023/11/11 03:08:53;;;;;;;19.83;11.37;;;7.80;99.90;;;;;;5071900;28;20435;-69
2023/11/11 03:11:18;;;;;;;15.53;8.93;;;7.80;99.90;;;;;;5072010;28;20473;-69
2023/11/11 03:13:44;;;;;;;9.50;6.63;;;7.70;99.90;;;;;;5071786;28;20251;-69
2023/11/11 03:16:10;;;;;;;12.87;8.27;;;7.70;99.90;;;;;;5072017;28;20177;-69
2023/11/11 03:18:37;;;;;;;16.63;8.83;;;7.70;99.90;;;;;;5071569;28;20189;-69
2023/11/11 03:21:03;;;;;;;15.03;8.10;;;7.80;99.90;;;;;;5071898;28;20480;-69
2023/11/11 03:23:28;;;;;;;13.20;7.83;;;7.80;99.90;;;;;;5070735;28;20405;-68
2023/11/11 03:25:54;;;;;;;16.53;8.07;;;7.90;99.90;;;;;;5071635;28;20190;-69
2023/11/11 03:28:19;;;;;;;11.80;7.30;;;8.00;99.90;;;;;;5071824;28;20190;-69
2023/11/11 03:30:46;;;;;;;12.03;6.60;;;8.00;99.90;;;;;;5071690;28;20195;-68
2023/11/11 03:33:12;;;;;;;12.30;6.80;;;8.00;99.90;;;;;;5071453;28;20223;-69
2023/11/11 03:35:37;;;;;;;11.50;6.00;;;8.10;99.90;;;;;;5071714;28;20401;-69
2023/11/11 03:38:03;;;;;;;13.80;6.90;;;8.10;99.90;;;;;;5053644;28;20259;-69
2023/11/11 03:40:28;;;;;;;9.03;4.80;;;8.00;99.90;;;;;;5071601;28;20173;-69
2023/11/11 03:42:54;;;;;;;5.63;4.97;;;8.00;99.90;;;;;;5071577;28;20223;-69
2023/11/11 03:45:21;;;;;;;7.93;5.47;;;7.90;99.90;;;;;;5071479;28;20300;-69
2023/11/11 03:47:52;;;;;;;6.77;4.70;;;7.90;99.90;;;;;;5071506;28;20162;-69
2023/11/11 03:50:17;;;;;;;10.47;5.37;;;7.80;99.90;;;;;;5071503;28;20399;-69
2023/11/11 03:52:43;;;;;;;5.27;4.77;;;7.70;99.90;;;;;;5071382;28;20416;-69
2023/11/11 03:55:09;;;;;;;7.40;4.77;;;7.60;99.90;;;;;;5071471;28;20169;-69
2023/11/11 03:57:35;;;;;;;7.23;4.70;;;7.50;99.90;;;;;;5071551;28;20174;-69
2023/11/11 04:00:05;;;;;;;9.17;5.07;;;7.50;99.90;;;;;;5071473;28;20170;-69
2023/11/11 04:02:31;;;;;;;4.60;3.50;;;7.40;99.90;;;;;;5071223;28;20452;-69
2023/11/11 04:04:57;;;;;;;4.17;3.50;;;7.40;99.90;;;;;;5071335;28;20864;-69
2023/11/11 04:07:22;;;;;;;5.67;3.30;;;7.30;99.90;;;;;;5071371;28;20483;-69
2023/11/11 04:09:48;;;;;;;13.20;6.33;;;7.30;99.90;;;;;;5071281;28;20277;-69
2023/11/11 04:12:13;;;;;;;12.83;4.13;;;7.30;99.90;;;;;;5071471;28;20265;-69
2023/11/11 04:14:39;;;;;;;6.03;4.20;;;7.20;99.90;;;;;;5071199;28;20595;-69
2023/11/11 04:17:04;;;;;;;6.03;3.70;;;7.30;99.90;;;;;;5071434;28;20219;-69
2023/11/11 04:19:30;;;;;;;5.90;3.20;;;7.30;99.90;;;;;;5070989;28;20599;-69
2023/11/11 04:21:56;;;;;;;3.60;2.90;;;7.30;99.90;;;;;;5071219;28;20593;-69
2023/11/11 04:24:21;;;;;;;6.70;3.60;;;7.40;99.90;;;;;;5071143;28;20162;-69
2023/11/11 04:26:47;;;;;;;3.60;2.87;;;7.50;99.90;;;;;;5071264;28;20163;-69
2023/11/11 04:29:12;;;;;;;5.97;3.90;;;7.60;99.90;;;;;;5071114;28;20653;-69
2023/11/11 04:31:38;;;;;;;4.30;3.60;;;7.70;99.90;;;;;;5071058;28;20166;-69
2023/11/11 04:34:04;;;;;;;6.00;3.43;;;7.70;99.90;;;;;;5072555;28;20177;-69
2023/11/11 04:36:30;;;;;;;4.23;2.67;;;7.70;99.90;;;;;;5074866;28;20645;-69
2023/11/11 04:38:55;;;;;;;5.10;2.50;;;7.80;99.90;;;;;;5074634;28;20424;-69
2023/11/11 04:41:23;;;;;;;4.77;3.10;;;7.70;99.90;;;;;;5074641;28;20751;-69
2023/11/11 04:43:50;;;;;;;3.10;2.60;;;7.80;99.90;;;;;;5074519;28;20243;-69
2023/11/11 04:46:17;;;;;;;2.60;2.40;;;7.80;99.90;;;;;;5074624;28;20401;-69
2023/11/11 04:48:43;;;;;;;6.23;2.80;;;7.80;99.90;;;;;;5074403;28;20454;-69
2023/11/11 04:51:08;;;;;;;2.97;2.20;;;7.90;99.90;;;;;;5056535;28;20449;-69
2023/11/11 04:53:34;;;;;;;2.67;2.23;;;7.90;99.90;;;;;;5074183;28;20182;-69
2023/11/11 04:56:00;;;;;;;8.57;2.50;;;7.90;99.90;;;;;;5074543;28;20159;-69
2023/11/11 04:58:26;;;;;;;3.13;2.27;;;7.90;99.90;;;;;;5074470;28;20590;-69
2023/11/11 05:00:52;;;;;;;2.23;2.00;;;7.80;99.90;;;;;;5074321;28;21177;-69
2023/11/11 05:03:18;;;;;;;3.03;1.63;;;7.80;99.90;;;;;;5073968;28;20448;-69
2023/11/11 05:05:43;;;;;;;4.03;2.40;;;7.80;99.90;;;;;;5074327;28;20168;-69
2023/11/11 05:08:09;;;;;;;1.70;1.47;;;7.80;99.90;;;;;;5074282;28;20258;-69
2023/11/11 05:10:35;;;;;;;2.43;1.87;;;7.80;99.90;;;;;;5074193;28;20162;-69
2023/11/11 05:13:01;;;;;;;4.33;2.10;;;7.80;99.90;;;;;;5074050;28;20181;-69
2023/11/11 05:15:30;;;;;;;8.47;2.17;;;7.90;99.90;;;;;;5073993;28;20918;-69
2023/11/11 05:17:56;;;;;;;5.37;2.63;;;7.80;99.90;;;;;;5074020;28;20427;-69
2023/11/11 05:20:22;;;;;;;2.80;2.13;;;7.80;99.90;;;;;;5073704;28;20407;-69
2023/11/11 05:22:47;;;;;;;8.63;4.17;;;7.90;99.90;;;;;;5073873;28;20448;-69
2023/11/11 05:25:13;;;;;;;3.43;2.50;;;7.90;99.90;;;;;;5073858;28;20185;-69
2023/11/11 05:27:39;;;;;;;3.00;2.17;;;7.90;99.90;;;;;;5073824;28;20180;-69
2023/11/11 05:30:06;;;;;;;3.60;2.23;;;7.90;99.90;;;;;;5073782;28;20823;-69
2023/11/11 05:32:32;;;;;;;4.40;2.07;;;7.80;99.90;;;;;;5073685;28;20252;-69
2023/11/11 05:34:58;;;;;;;6.17;2.87;;;7.80;99.90;;;;;;5073567;28;20558;-69
2023/11/11 05:37:24;;;;;;;3.57;2.50;;;7.80;99.90;;;;;;5073523;28;20409;-69
2023/11/11 05:39:50;;;;;;;3.20;2.90;;;7.70;99.90;;;;;;5073537;28;20511;-69
2023/11/11 05:42:16;;;;;;;4.63;2.80;;;7.70;99.90;;;;;;5073594;28;20543;-69
2023/11/11 05:44:41;;;;;;;9.10;3.20;;;7.60;99.90;;;;;;5073005;28;20408;-69
2023/11/11 05:47:11;;;;;;;3.80;3.27;;;7.60;99.90;;;;;;5073100;28;20569;-69
2023/11/11 05:49:37;;;;;;;4.60;3.90;;;7.60;99.90;;;;;;5073328;28;20182;-69
2023/11/11 05:52:04;;;;;;;5.80;3.27;;;7.50;99.90;;;;;;5073436;28;20405;-69
2023/11/11 05:54:30;;;;;;;11.17;5.87;;;7.40;99.90;;;;;;5073391;28;20931;-69
2023/11/11 05:56:56;;;;;;;7.23;5.17;;;7.40;99.90;;;;;;5073360;28;20409;-68
2023/11/11 05:59:22;;;;;;;9.30;4.77;;;7.30;99.90;;;;;;5073118;28;20513;-69
2023/11/11 06:01:48;;;;;;;10.53;4.70;;;7.20;99.90;;;;;;5055188;28;20288;-69
2023/11/11 06:04:14;;;;;;;6.47;4.60;;;7.20;99.90;;;;;;5072980;28;20194;-69
2023/11/11 06:06:43;;;;;;;6.23;4.43;;;7.20;99.90;;;;;;5073264;28;20401;-69
2023/11/11 06:09:14;;;;;;;9.47;5.33;;;7.20;99.90;;;;;;5072966;28;20420;-69
2023/11/11 06:11:45;;;;;;;5.03;3.43;;;7.10;99.90;;;;;;5072994;28;20815;-69
2023/11/11 06:14:16;;;;;;;4.23;3.83;;;7.10;99.90;;;;;;5072791;28;20432;-69
2023/11/11 06:16:42;;;;;;;13.13;4.80;;;7.10;99.90;;;;;;5073030;28;20401;-69
2023/11/11 06:19:07;;;;;;;5.83;4.63;;;7.00;99.90;;;;;;5072556;28;20428;-69
2023/11/11 06:21:33;;;;;;;9.50;4.43;;;7.00;99.90;;;;;;5054778;28;20455;-69
2023/11/11 06:23:58;;;;;;;4.57;3.97;;;6.90;99.90;;;;;;5072458;28;20159;-69
2023/11/11 06:26:24;;;;;;;6.53;3.53;;;6.90;99.90;;;;;;5072733;28;20238;-69
2023/11/11 06:28:51;;;;;;;9.50;3.70;;;6.90;99.90;;;;;;5072526;28;20182;-69
2023/11/11 06:31:18;;;;;;;9.57;3.80;;;6.90;99.90;;;;;;5072700;28;20210;-69
2023/11/11 06:33:44;;;;;;;5.93;4.20;;;6.80;99.90;;;;;;5072390;28;20408;-69
2023/11/11 06:36:10;;;;;;;7.17;4.77;;;6.80;99.90;;;;;;5072623;28;20480;-69
2023/11/11 06:38:36;;;;;;;6.57;4.57;;;6.80;99.90;;;;;;5072302;28;20459;-69
2023/11/11 06:41:02;;;;;;;4.27;3.87;;;6.70;99.90;;;;;;5072405;28;20223;-69
2023/11/11 06:43:27;;;;;;;5.20;4.30;;;6.70;99.90;;;;;;5054217;28;20447;-69
2023/11/11 06:45:53;;;;;;;11.60;5.97;;;6.70;99.90;;;;;;5072354;28;20393;-69
2023/11/11 06:48:19;;;;;;;7.23;4.70;;;6.70;99.90;;;;;;5072259;28;20732;-69
2023/11/11 06:50:45;;;;;;;9.30;5.43;;;6.70;99.90;;;;;;5072293;28;20408;-69
2023/11/11 06:53:11;;;;;;;9.80;6.00;;;6.60;99.90;;;;;;5072012;28;20718;-69
2023/11/11 06:55:37;;;;;;;8.63;6.47;;;6.60;99.90;;;;;;5072265;28;20763;-69
2023/11/11 06:58:04;;;;;;;12.13;5.97;;;6.60;99.90;;;;;;5071991;28;20435;-68
2023/11/11 07:00:31;;;;;;;9.20;5.40;;;6.60;99.90;;;;;;5072067;28;20166;-69
2023/11/11 07:02:58;;;;;;;13.50;8.10;;;6.60;99.90;;;;;;5072028;28;20444;-69
2023/11/11 07:05:24;;;;;;;14.07;7.73;;;6.50;99.90;;;;;;5071999;28;20926;-69
2023/11/11 07:07:50;;;;;;;11.90;7.37;;;6.50;99.90;;;;;;5072084;28;20903;-69
2023/11/11 07:10:16;;;;;;;14.87;7.90;;;6.60;99.90;;;;;;5053987;28;20416;-69
2023/11/11 07:12:43;;;;;;;9.93;7.10;;;6.50;99.90;;;;;;5071901;28;20243;-68
2023/11/11 07:15:10;;;;;;;15.03;8.93;;;6.50;99.90;;;;;;5071818;28;20158;-69
2023/11/11 07:17:37;;;;;;;15.43;7.73;;;6.50;99.90;;;;;;5072065;28;20909;-69
2023/11/11 07:20:05;;;;;;;15.73;7.40;;;6.50;99.90;;;;;;5071905;28;20492;-69
2023/11/11 07:22:31;;;;;;;10.53;6.70;;;6.60;99.90;;;;;;5071856;28;20448;-69
2023/11/11 07:24:57;;;;;;;21.83;7.67;;;6.60;99.90;;;;;;5071719;28;20405;-69
2023/11/11 07:27:22;;;;;;;14.70;7.60;;;6.60;99.90;;;;;;5053834;28;20420;-69
2023/11/11 07:29:48;;;;;;;12.53;8.00;;;6.60;99.90;;;;;;5071733;28;20672;-69
2023/11/11 07:32:14;;;;;;;15.87;9.77;;;6.60;99.90;;;;;;5071500;28;20166;-69
2023/11/11 07:34:39;;;;;;;14.63;8.47;;;6.60;99.90;;;;;;5071277;28;20169;-69
2023/11/11 07:37:06;;;;;;;26.43;9.17;;;6.70;99.90;;;;;;5071649;28;20427;-69
2023/11/11 07:39:32;;;;;;;14.40;8.00;;;6.80;99.90;;;;;;5071593;28;20182;-69
2023/11/11 07:41:57;;;;;;;14.43;9.63;;;6.90;99.90;;;;;;5071493;28;20462;-68
2023/11/11 07:44:24;;;;;;;16.27;9.90;;;6.90;99.90;;;;;;5071703;28;20188;-69
2023/11/11 07:46:50;;;;;;;13.47;9.20;;;7.30;99.90;;;;;;5071756;28;20220;-69
2023/11/11 07:49:15;;;;;;;15.57;9.57;;;8.10;99.90;;;;;;5053478;28;20424;-69
2023/11/11 07:51:41;;;;;;;12.53;8.93;;;8.50;99.90;;;;;;5071564;28;20167;-69
2023/11/11 07:54:07;;;;;;;15.73;8.17;;;8.60;99.90;;;;;;5071375;28;20708;-69
2023/11/11 07:56:37;;;;;;;12.93;8.30;;;8.50;99.90;;;;;;5071675;28;20162;-69
2023/11/11 07:59:03;;;;;;;15.73;7.77;;;8.30;99.90;;;;;;5071387;28;20562;-69
2023/11/11 08:01:29;;;;;;;10.10;6.80;;;8.20;99.90;;;;;;5071456;28;20873;-69
2023/11/11 08:03:55;;;;;;;15.20;6.93;;;8.10;99.90;;;;;;5071238;28;20714;-69
2023/11/11 08:06:23;;;;;;;12.20;7.00;;;8.00;99.90;;;;;;5071503;28;20411;-69
2023/11/11 08:08:49;;;;;;;17.50;7.97;;;8.00;99.90;;;;;;5072476;28;20417;-69
2023/11/11 08:11:15;;;;;;;21.03;8.87;;;8.00;99.90;;;;;;5075307;28;20400;-69
2023/11/11 08:13:41;;;;;;;12.17;6.50;;;7.90;99.90;;;;;;5075094;28;20166;-69
2023/11/11 08:16:06;;;;;;;19.33;6.40;;;8.00;99.90;;;;;;5075366;28;20964;-69
2023/11/11 08:18:33;;;;;;;15.97;6.07;;;8.00;99.90;;;;;;5075070;28;20229;-69
2023/11/11 08:20:58;;;;;;;10.83;6.87;;;8.10;99.90;;;;;;5075486;28;20253;-69
2023/11/11 08:23:24;;;;;;;8.63;5.20;;;8.10;99.90;;;;;;5074814;28;20543;-69
2023/11/11 08:25:49;;;;;;;12.00;7.33;;;8.20;99.90;;;;;;5075056;28;20199;-69
2023/11/11 08:28:15;;;;;;;15.73;7.07;;;8.30;99.90;;;;;;5074903;28;20186;-69
2023/11/11 08:30:41;;;;;;;11.17;5.30;;;8.40;99.90;;;;;;5074947;28;20158;-69
2023/11/11 08:33:08;;;;;;;11.13;6.07;;;8.30;99.90;;;;;;5074712;28;20638;-69
2023/11/11 08:35:34;;;;;;;10.20;5.30;;;8.30;99.90;;;;;;5074935;28;20681;-69
2023/11/11 08:38:00;;;;;;;12.50;7.07;;;8.40;99.90;;;;;;5074740;28;20508;-69
2023/11/11 08:40:26;;;;;;;11.93;6.00;;;8.40;99.90;;;;;;5075238;28;20499;-69
2023/11/11 08:42:52;;;;;;;11.80;5.47;;;8.50;99.90;;;;;;5074642;28;20186;-69
2023/11/11 08:45:18;;;;;;;14.87;5.17;;;8.50;99.90;;;;;;5074546;28;20458;-69
2023/11/11 08:47:44;;;;;;;11.80;6.17;;;8.60;99.90;;;;;;5074618;28;20239;-69
2023/11/11 08:50:11;;;;;;;7.50;5.30;;;8.70;99.90;;;;;;5056690;28;20267;-69
2023/11/11 08:52:38;;;;;;;7.03;4.97;;;8.70;99.90;;;;;;5074418;28;20424;-69
2023/11/11 08:55:04;;;;;;;7.30;5.67;;;8.80;99.90;;;;;;5074233;28;20422;-69
2023/11/11 08:57:29;;;;;;;12.63;5.23;;;9.00;99.90;;;;;;5074423;28;20495;-69
2023/11/11 08:59:55;;;;;;;10.17;5.43;;;9.20;99.90;;;;;;5074313;28;20551;-69
2023/11/11 09:02:20;;;;;;;7.63;4.80;;;9.40;99.90;;;;;;5074262;28;20193;-69
2023/11/11 09:04:46;;;;;;;6.17;4.40;;;9.60;99.90;;;;;;5073944;28;20154;-69
2023/11/11 09:07:12;;;;;;;7.30;4.63;;;9.60;99.90;;;;;;5074346;28;20641;-68
2023/11/11 09:09:38;;;;;;;8.90;4.93;;;9.90;99.90;;;;;;5074158;28;20273;-69
2023/11/11 09:12:04;;;;;;;11.83;4.80;;;10.20;99.90;;;;;;5074349;28;20948;-68
2023/11/11 09:14:33;;;;;;;11.63;5.40;;;10.90;99.90;;;;;;5073966;28;20166;-67
2023/11/11 09:17:01;;;;;;;8.83;4.87;;;12.30;99.90;;;;;;5074131;28;20896;-67
2023/11/11 09:19:26;;;;;;;7.93;4.57;;;13.20;99.90;;;;;;5073458;28;21025;-67
2023/11/11 09:21:52;;;;;;;5.93;4.30;;;13.60;99.90;;;;;;5073113;28;20535;-67
2023/11/11 09:24:17;;;;;;;10.50;3.93;;;13.90;99.90;;;;;;5073792;28;20166;-67
2023/11/11 09:26:43;;;;;;;6.67;4.23;;;14.00;99.90;;;;;;5073954;28;20213;-67
2023/11/11 09:29:08;;;;;;;5.70;3.60;;;14.30;99.90;;;;;;5073783;28;20182;-67
2023/11/11 09:31:34;;;;;;;6.83;3.93;;;14.70;99.90;;;;;;5073968;28;20173;-67
2023/11/11 09:34:02;;;;;;;8.03;4.00;;;15.00;99.90;;;;;;5055686;28;20645;-67
2023/11/11 09:36:28;;;;;;;6.40;3.70;;;15.50;99.90;;;;;;5073812;28;20170;-67
2023/11/11 09:38:54;;;;;;;8.00;4.63;;;15.60;99.90;;;;;;5073570;28;20478;-68
2023/11/11 09:41:20;;;;;;;8.90;3.50;;;15.20;99.90;;;;;;5073615;28;20405;-67
2023/11/11 09:43:46;;;;;;;4.77;3.93;;;15.00;99.90;;;;;;5073582;28;20194;-67
2023/11/11 09:46:15;;;;;;;7.13;4.37;;;14.80;99.90;;;;;;5073318;28;20435;-67
2023/11/11 09:48:42;;;;;;;8.27;3.70;;;14.50;99.90;;;;;;5073461;28;20181;-67
2023/11/11 09:51:08;;;;;;;7.20;3.33;;;14.20;99.90;;;;;;5073410;28;20392;-67
2023/11/11 09:53:35;;;;;;;8.50;3.87;;;13.40;99.90;;;;;;5073072;28;20421;-67
2023/11/11 09:56:03;;;;;;;7.30;3.47;;;13.30;99.90;;;;;;5073302;28;20428;-69
2023/11/11 09:58:31;;;;;;;10.43;3.67;;;13.20;99.90;;;;;;5073299;28;20795;-69
2023/11/11 10:00:57;;;;;;;5.50;4.30;;;13.40;99.90;;;;;;5073297;28;20401;-69
2023/11/11 10:03:23;;;;;;;3.80;3.07;;;13.20;99.90;;;;;;5072936;28;20806;-69
2023/11/11 10:05:49;;;;;;;3.67;3.00;;;13.20;99.90;;;;;;5073120;28;20237;-70
2023/11/11 10:08:14;;;;;;;5.80;3.73;;;13.00;99.90;;;;;;5073056;28;20178;-70
2023/11/11 10:10:41;;;;;;;5.40;3.53;;;13.30;99.90;;;;;;5073025;28;20166;-69
2023/11/11 10:13:07;;;;;;;8.53;3.40;;;13.20;99.90;;;;;;5072841;28;20283;-69
2023/11/11 10:15:32;;;;;;;7.30;3.30;;;14.30;99.90;;;;;;5072785;28;20423;-70
2023/11/11 10:18:00;;;;;;;6.30;3.30;;;15.20;99.90;;;;;;5072820;28;20182;-69
2023/11/11 10:20:30;;;;;;;3.80;3.50;;;16.40;99.90;;;;;;5072728;28;20972;-70
2023/11/11 10:22:56;;;;;;;8.03;3.03;;;16.70;99.90;;;;;;5072811;28;20475;-69
2023/11/11 10:25:22;;;;;;;3.60;2.77;;;17.10;99.90;;;;;;5072535;28;20409;-70
2023/11/11 10:27:52;;;;;;;5.10;2.80;;;17.20;97.80;;;;;;5072679;28;20412;-69
2023/11/11 10:30:19;;;;;;;5.70;3.00;;;16.80;95.00;;;;;;5072465;28;20540;-67
2023/11/11 10:32:48;;;;;;;4.40;2.97;;;16.30;95.80;;;;;;5072165;28;20958;-68
2023/11/11 10:35:15;;;;;;;5.30;3.10;;;15.60;96.60;;;;;;5072389;28;20411;-67
2023/11/11 10:37:41;;;;;;;5.90;3.10;;;14.90;98.70;;;;;;5072495;28;20487;-67
2023/11/11 10:40:09;;;;;;;9.87;2.83;;;14.90;99.90;;;;;;5072392;28;20881;-67
2023/11/11 10:42:35;;;;;;;3.40;3.03;;;15.10;99.90;;;;;;5072519;28;20189;-67
2023/11/11 10:45:03;;;;;;;3.80;2.80;;;15.40;99.90;;;;;;5054265;28;20404;-67
2023/11/11 10:47:29;;;;;;;3.90;2.63;;;16.50;99.90;;;;;;5072312;28;20561;-67
2023/11/11 10:49:57;;;;;;;6.03;2.77;;;18.10;99.90;;;;;;5072212;28;20420;-67
2023/11/11 10:52:24;;;;;;;3.53;2.43;;;19.80;90.40;;;;;;5072086;28;20929;-68
2023/11/11 10:54:52;;;;;;;3.00;2.70;;;21.30;78.10;;;;;;5072108;28;20795;-67
2023/11/11 10:57:18;;;;;;;3.20;2.37;;;22.60;71.20;;;;;;5072198;28;20403;-67
2023/11/11 10:59:44;;;;;;;6.13;4.40;;;22.70;57.00;;;;;;5072016;28;20416;-68
2023/11/11 11:02:11;;;;;;;3.43;3.13;;;21.80;55.80;;;;;;5072072;28;20454;-67
2023/11/11 11:04:44;;;;;;;4.27;2.47;;;21.30;57.00;;;;;;5071929;28;20159;-67
2023/11/11 11:07:14;;;;;;;4.13;2.40;;;21.10;58.40;;;;;;5072115;28;20392;-68
2023/11/11 11:10:01;;;;;;;2.87;2.00;;;21.20;56.30;;;;;;5072245;28;21173;-67
2023/11/11 11:12:43;;;;;;;6.17;2.93;;;21.40;56.70;;;;;;5053966;28;20412;-67
2023/11/11 11:15:13;;;;;;;5.17;3.30;;;20.50;56.00;;;;;;5071932;28;20462;-67
2023/11/11 11:17:47;;;;;;;4.33;2.70;;;19.70;56.20;;;;;;5071924;28;20409;-68
2023/11/11 11:20:17;;;;;;;4.20;2.57;;;18.50;56.00;;;;;;5071916;28;20440;-67
2023/11/11 11:22:44;;;;;;;4.67;2.17;;;18.40;59.80;;;;;;5071684;28;20542;-68
2023/11/11 11:25:39;;;;;;;5.30;2.50;;;18.00;59.00;;;;;;5071645;28;21049;-68
2023/11/11 11:28:10;;;;;;;4.30;2.60;;;16.50;59.40;;;;;;5071778;28;20404;-67
2023/11/11 11:30:47;;;;;;;2.57;2.33;;;15.90;63.00;;;;;;5071720;28;20397;-70
2023/11/11 11:33:16;;;;;;;3.53;3.23;;;14.90;66.10;;;;;;5071577;28;20388;-70
2023/11/11 11:35:53;;;;;;;8.20;2.53;;;14.40;71.10;;;;;;5071762;28;20396;-70
2023/11/11 11:38:31;;;;;;;3.80;2.33;;;14.00;79.00;;;;;;5071675;28;20829;-67
2023/11/11 11:41:05;;;;;;;3.67;2.17;;;13.60;92.60;;;;;;5071764;28;20389;-67
2023/11/11 11:43:33;;;;;;;5.33;4.03;;;13.00;99.90;;;;;;5072078;28;20456;-67
2023/11/11 11:46:00;;;;;;;4.30;2.50;;;12.90;99.90;;;;;;5075934;28;20404;-67
2023/11/11 11:48:27;;;;;;;5.20;2.00;;;12.80;99.90;;;;;;5057775;28;20432;-67
2023/11/11 11:51:03;;;;;;;3.30;1.80;;;12.70;99.90;;;;;;5075667;28;20400;-67
2023/11/11 11:53:29;;;;;;;6.03;2.00;;;12.50;99.90;;;;;;5075269;28;20424;-67
2023/11/11 11:55:54;;;;;;;4.30;2.03;;;12.40;99.90;;;;;;5075660;28;20407;-67
2023/11/11 11:58:20;;;;;;;4.70;2.50;;;12.20;99.90;;;;;;5075479;28;20580;-67
2023/11/11 12:00:45;;;;;;;3.13;1.83;;;12.30;99.90;;;;;;5075578;28;20170;-67
2023/11/11 12:03:11;;;;;;;3.37;2.27;;;12.30;99.90;;;;;;5075416;28;20189;-67
2023/11/11 12:05:37;;;;;;;6.10;2.50;;;12.50;99.90;;;;;;5075636;28;20174;-67
2023/11/11 12:08:04;;;;;;;4.17;2.10;;;12.80;99.90;;;;;;5075534;28;20416;-67
2023/11/11 12:10:44;;;;;;;7.50;2.53;;;13.10;99.90;;;;;;5075390;28;20166;-67
2023/11/11 12:13:09;;;;;;;2.70;2.10;;;13.00;99.90;;;;;;5075143;28;20491;-67
2023/11/11 12:15:35;;;;;;;5.37;2.70;;;13.50;99.90;;;;;;5075579;28;20504;-67
2023/11/11 12:18:09;;;;;;;5.93;2.20;;;14.00;99.90;;;;;;5075257;28;20188;-68
2023/11/11 12:20:42;;;;;;;6.60;2.23;;;15.70;99.90;;;;;;5075093;28;20174;-68
2023/11/11 12:23:14;;;;;;;6.20;2.17;;;16.50;99.90;;;;;;5074808;28;20443;-67
2023/11/11 12:25:41;;;;;;;2.77;2.00;;;15.90;97.80;;;;;;5075165;28;20458;-67
2023/11/11 12:28:07;;;;;;;4.00;1.77;;;16.70;99.90;;;;;;5074965;28;20416;-67
2023/11/11 12:30:33;;;;;;;2.47;1.50;;;17.50;95.30;;;;;;5074863;28;20408;-67
2023/11/11 12:33:08;;;;;;;3.83;1.90;;;17.90;93.30;;;;;;5057022;28;20170;-68
2023/11/11 12:35:36;;;;;;;9.03;5.83;;;19.00;91.00;;;;;;5074795;28;20404;-67
2023/11/11 12:38:25;;;;;;;4.50;2.00;;;20.70;82.90;;;;;;5074704;28;20957;-67
2023/11/11 12:40:52;;;;;;;5.27;2.23;;;21.60;71.30;;;;;;5074729;28;20392;-67
2023/11/11 12:43:22;;;;;;;2.70;1.67;;;21.40;65.40;;;;;;5060943;28;20863;-67
2023/11/11 12:45:49;;;;;;;1.73;1.63;;;21.00;61.50;;;;;;5074511;28;20407;-67
2023/11/11 12:48:16;;;;;;;2.13;1.87;;;20.10;61.10;;;;;;5074161;28;20467;-67